createdAt,value
2022-11-14T00:00:58.105Z,5.50
2022-11-14T00:01:58.119Z,5.30
2022-11-14T00:02:58.191Z,5.70
2022-11-14T00:03:58.153Z,5.80
2022-11-14T00:04:58.172Z,5.50
2022-11-14T00:05:58.187Z,5.40
2022-11-14T00:06:58.232Z,5.50
2022-11-14T00:07:58.220Z,5.30
2022-11-14T00:08:58.235Z,5.50
2022-11-14T00:09:58.369Z,5.20
2022-11-14T00:10:58.269Z,5.50
2022-11-14T00:11:58.692Z,5.20
2022-11-14T00:12:58.304Z,5.30
2022-11-14T00:13:58.320Z,5.10
2022-11-14T00:14:58.336Z,5.30
2022-11-14T00:15:58.351Z,5.50
2022-11-14T00:16:58.370Z,5.60
2022-11-14T00:17:58.387Z,5.40
2022-11-14T00:18:58.402Z,5.20
2022-11-14T00:19:58.419Z,5.10
2022-11-14T00:20:58.436Z,5.30
2022-11-14T00:21:58.452Z,5.30
2022-11-14T00:22:58.466Z,5.40
2022-11-14T00:23:58.485Z,5.40
2022-11-14T00:24:58.502Z,5.30
2022-11-14T00:25:58.633Z,5.30
2022-11-14T00:26:58.533Z,5.20
2022-11-14T00:27:58.551Z,5.10
2022-11-14T00:28:58.570Z,5.30
2022-11-14T00:29:58.586Z,5.90
2022-11-14T00:30:58.600Z,4.90
2022-11-14T00:31:58.619Z,5.20
2022-11-14T00:32:58.638Z,5.30
2022-11-14T00:33:58.651Z,5.00
2022-11-14T00:34:58.666Z,5.00
2022-11-14T00:35:58.685Z,5.20
2022-11-14T00:36:58.698Z,5.00
2022-11-14T00:37:58.717Z,4.80
2022-11-14T00:38:58.732Z,5.60
2022-11-14T00:39:58.748Z,5.10
2022-11-14T00:40:58.769Z,4.70
2022-11-14T00:41:58.895Z,4.90
2022-11-14T00:42:58.802Z,5.10
2022-11-14T00:43:58.817Z,4.60
2022-11-14T00:44:58.832Z,4.60
2022-11-14T00:45:58.850Z,4.70
2022-11-14T00:46:59.392Z,4.90
2022-11-14T00:47:58.883Z,5.50
2022-11-14T00:48:58.902Z,4.90
2022-11-14T00:49:58.919Z,4.50
2022-11-14T00:50:58.931Z,5.00
2022-11-14T00:51:58.950Z,4.70
2022-11-14T00:52:58.966Z,5.70
2022-11-14T00:53:58.980Z,4.90
2022-11-14T00:54:58.997Z,4.50
2022-11-14T00:55:59.013Z,5.30
2022-11-14T00:56:59.032Z,4.70
2022-11-14T00:57:59.165Z,4.40
2022-11-14T00:58:59.064Z,4.60
2022-11-14T00:59:59.080Z,4.60
2022-11-14T01:00:59.132Z,4.50
2022-11-14T01:01:59.122Z,4.30
2022-11-14T01:02:59.130Z,4.70
2022-11-14T01:03:59.147Z,4.50
2022-11-14T01:04:59.164Z,4.80
2022-11-14T01:05:59.181Z,4.70
2022-11-14T01:06:59.195Z,4.40
2022-11-14T01:07:59.211Z,4.50
2022-11-14T01:08:59.332Z,4.70
2022-11-14T01:09:59.246Z,4.40
2022-11-14T01:10:59.262Z,4.60
2022-11-14T01:11:59.278Z,4.30
2022-11-14T01:12:59.294Z,4.40
2022-11-14T01:13:59.422Z,4.30
2022-11-14T01:14:59.330Z,4.40
2022-11-14T01:15:59.344Z,4.30
2022-11-14T01:16:59.362Z,4.60
2022-11-14T01:17:59.380Z,4.40
2022-11-14T01:18:59.394Z,4.10
2022-11-14T01:19:59.412Z,4.20
2022-11-14T01:20:59.428Z,4.50
2022-11-14T01:22:03.098Z,4.60
2022-11-14T01:22:59.460Z,4.40
2022-11-14T01:23:59.476Z,4.40
2022-11-14T01:24:59.493Z,4.60
2022-11-14T01:25:59.509Z,4.30
2022-11-14T01:26:59.527Z,4.30
2022-11-14T01:27:59.543Z,4.20
2022-11-14T01:28:59.558Z,4.30
2022-11-14T01:29:59.689Z,4.20
2022-11-14T01:30:59.590Z,4.20
2022-11-14T01:31:59.606Z,4.50
2022-11-14T01:32:59.625Z,4.30
2022-11-14T01:33:59.640Z,4.30
2022-11-14T01:34:59.659Z,4.20
2022-11-14T01:35:59.672Z,4.50
2022-11-14T01:36:59.695Z,4.30
2022-11-14T01:37:59.709Z,4.30
2022-11-14T01:38:59.723Z,4.20
2022-11-14T01:39:59.740Z,4.20
2022-11-14T01:40:59.757Z,3.70
2022-11-14T01:41:59.975Z,4.10
2022-11-14T01:42:59.789Z,3.90
2022-11-14T01:43:59.805Z,4.10
2022-11-14T01:44:59.822Z,4.10
2022-11-14T01:45:59.949Z,4.20
2022-11-14T01:46:59.855Z,4.40
2022-11-14T01:47:59.872Z,4.00
2022-11-14T01:48:59.888Z,3.80
2022-11-14T01:49:59.906Z,4.00
2022-11-14T01:50:59.921Z,4.20
2022-11-14T01:51:59.938Z,4.30
2022-11-14T01:52:59.955Z,4.00
2022-11-14T01:53:59.970Z,4.30
2022-11-14T01:54:59.986Z,3.90
2022-11-14T01:56:00.004Z,4.00
2022-11-14T01:57:00.090Z,4.00
2022-11-14T01:58:00.035Z,3.80
2022-11-14T01:59:00.051Z,4.00
2022-11-14T02:00:00.078Z,4.30
2022-11-14T02:01:00.166Z,3.90
2022-11-14T02:02:00.315Z,3.90
2022-11-14T02:03:00.116Z,4.20
2022-11-14T02:04:00.135Z,4.10
2022-11-14T02:05:00.149Z,4.00
2022-11-14T02:06:00.171Z,4.20
2022-11-14T02:07:00.258Z,4.10
2022-11-14T02:08:00.201Z,4.10
2022-11-14T02:09:00.216Z,4.00
2022-11-14T02:10:00.232Z,3.60
2022-11-14T02:11:00.246Z,3.80
2022-11-14T02:12:00.266Z,3.90
2022-11-14T02:13:00.284Z,4.20
2022-11-14T02:14:00.314Z,4.10
2022-11-14T02:15:00.323Z,4.70
2022-11-14T02:16:00.330Z,3.60
2022-11-14T02:17:22.226Z,3.60
2022-11-14T02:18:00.483Z,4.30
2022-11-14T02:19:00.380Z,3.90
2022-11-14T02:20:04.843Z,4.70
2022-11-14T02:21:00.416Z,4.10
2022-11-14T02:22:00.431Z,3.90
2022-11-14T02:23:00.444Z,4.20
2022-11-14T02:24:00.460Z,4.00
2022-11-14T02:25:00.478Z,3.90
2022-11-14T02:26:00.498Z,3.70
2022-11-14T02:27:00.508Z,4.00
2022-11-14T02:28:00.527Z,3.80
2022-11-14T02:29:00.543Z,3.60
2022-11-14T02:30:00.560Z,4.00
2022-11-14T02:31:00.575Z,3.90
2022-11-14T02:32:00.592Z,3.90
2022-11-14T02:33:16.038Z,3.80
2022-11-14T02:34:00.738Z,4.20
2022-11-14T02:35:00.640Z,4.10
2022-11-14T02:36:00.656Z,3.70
2022-11-14T02:37:00.673Z,3.90
2022-11-14T02:38:00.689Z,4.60
2022-11-14T02:39:00.706Z,4.30
2022-11-14T02:40:00.722Z,4.70
2022-11-14T02:41:00.739Z,4.60
2022-11-14T02:42:00.756Z,3.70
2022-11-14T02:43:00.772Z,3.60
2022-11-14T02:44:00.788Z,3.90
2022-11-14T02:45:00.807Z,3.90
2022-11-14T02:46:05.394Z,3.60
2022-11-14T02:47:00.839Z,4.00
2022-11-14T02:48:00.850Z,4.30
2022-11-14T02:49:00.869Z,4.00
2022-11-14T02:50:00.999Z,3.80
2022-11-14T02:51:00.901Z,4.80
2022-11-14T02:52:00.931Z,3.70
2022-11-14T02:53:00.937Z,4.20
2022-11-14T02:54:00.953Z,3.90
2022-11-14T02:55:00.972Z,3.80
2022-11-14T02:56:00.983Z,3.70
2022-11-14T02:57:01.004Z,3.90
2022-11-14T02:58:01.018Z,3.80
2022-11-14T02:59:01.035Z,4.30
2022-11-14T03:00:01.050Z,3.60
2022-11-14T03:01:19.783Z,3.80
2022-11-14T03:02:01.171Z,3.80
2022-11-14T03:03:01.096Z,3.80
2022-11-14T03:04:01.115Z,3.50
2022-11-14T03:05:01.129Z,3.90
2022-11-14T03:06:01.263Z,4.00
2022-11-14T03:07:01.225Z,3.90
2022-11-14T03:08:01.179Z,3.70
2022-11-14T03:09:01.197Z,3.60
2022-11-14T03:10:01.211Z,4.00
2022-11-14T03:11:01.237Z,3.50
2022-11-14T03:12:01.242Z,4.10
2022-11-14T03:13:01.259Z,3.90
2022-11-14T03:14:01.281Z,3.70
2022-11-14T03:15:01.296Z,4.80
2022-11-14T03:16:01.315Z,4.20
2022-11-14T03:17:01.325Z,3.90
2022-11-14T03:18:01.341Z,3.60
2022-11-14T03:19:01.357Z,3.70
2022-11-14T03:20:01.373Z,3.60
2022-11-14T03:21:01.388Z,3.60
2022-11-14T03:22:01.515Z,4.20
2022-11-14T03:23:01.423Z,3.60
2022-11-14T03:24:01.437Z,3.90
2022-11-14T03:25:01.452Z,3.50
2022-11-14T03:26:01.470Z,3.80
2022-11-14T03:27:01.486Z,3.40
2022-11-14T03:28:01.503Z,3.90
2022-11-14T03:29:01.518Z,3.80
2022-11-14T03:30:01.539Z,4.40
2022-11-14T03:31:01.551Z,3.80
2022-11-14T03:32:01.568Z,4.00
2022-11-14T03:33:01.586Z,4.10
2022-11-14T03:34:01.601Z,4.00
2022-11-14T03:35:01.617Z,4.50
2022-11-14T03:36:01.633Z,4.10
2022-11-14T03:37:01.656Z,4.10
2022-11-14T03:38:01.783Z,4.60
2022-11-14T03:39:01.680Z,4.20
2022-11-14T03:40:01.696Z,4.40
2022-11-14T03:41:01.716Z,4.30
2022-11-14T03:42:01.757Z,4.00
2022-11-14T03:43:01.746Z,3.80
2022-11-14T03:44:01.767Z,3.90
2022-11-14T03:45:01.779Z,3.60
2022-11-14T03:46:01.794Z,3.60
2022-11-14T03:47:01.810Z,4.50
2022-11-14T03:48:01.834Z,3.80
2022-11-14T03:49:01.843Z,3.80
2022-11-14T03:50:01.860Z,4.00
2022-11-14T03:51:01.875Z,3.90
2022-11-14T03:52:01.894Z,3.50
2022-11-14T03:53:01.906Z,3.40
2022-11-14T03:54:02.041Z,3.90
2022-11-14T03:55:01.938Z,3.80
2022-11-14T03:56:01.955Z,4.00
2022-11-14T03:57:01.972Z,5.10
2022-11-14T03:58:02.007Z,3.90
2022-11-14T03:59:02.003Z,3.90
2022-11-14T04:00:02.018Z,3.80
2022-11-14T04:01:02.075Z,4.70
2022-11-14T04:02:02.053Z,3.70
2022-11-14T04:03:02.069Z,4.50
2022-11-14T04:04:02.093Z,4.00
2022-11-14T04:05:02.113Z,4.50
2022-11-14T04:06:02.118Z,4.60
2022-11-14T04:07:02.284Z,3.80
2022-11-14T04:08:02.149Z,4.10
2022-11-14T04:09:02.166Z,3.90
2022-11-14T04:10:02.298Z,4.90
2022-11-14T04:11:02.198Z,4.00
2022-11-14T04:12:02.215Z,3.70
2022-11-14T04:13:02.228Z,3.80
2022-11-14T04:14:02.250Z,4.50
2022-11-14T04:15:02.266Z,3.80
2022-11-14T04:16:02.285Z,4.40
2022-11-14T04:17:02.294Z,3.80
2022-11-14T04:18:02.314Z,3.50
2022-11-14T04:19:02.335Z,4.00
2022-11-14T04:20:02.341Z,3.60
2022-11-14T04:21:02.359Z,3.70
2022-11-14T04:22:02.374Z,3.80
2022-11-14T04:23:02.395Z,3.70
2022-11-14T04:24:04.865Z,4.00
2022-11-14T04:25:02.425Z,3.50
2022-11-14T04:26:02.551Z,3.70
2022-11-14T04:27:02.455Z,4.00
2022-11-14T04:28:02.475Z,3.30
2022-11-14T04:29:02.490Z,4.50
2022-11-14T04:30:02.512Z,3.80
2022-11-14T04:31:02.527Z,4.30
2022-11-14T04:32:02.536Z,3.90
2022-11-14T04:33:02.555Z,5.20
2022-11-14T04:34:02.571Z,3.60
2022-11-14T04:35:02.583Z,3.50
2022-11-14T04:36:02.599Z,3.90
2022-11-14T04:37:02.618Z,3.50
2022-11-14T04:38:02.634Z,6.10
2022-11-14T04:39:02.650Z,4.00
2022-11-14T04:40:02.666Z,4.50
2022-11-14T04:41:02.682Z,3.90
2022-11-14T04:42:02.810Z,3.60
2022-11-14T04:43:02.713Z,5.20
2022-11-14T04:44:02.729Z,3.40
2022-11-14T04:45:02.797Z,4.10
2022-11-14T04:46:02.770Z,3.80
2022-11-14T04:47:02.782Z,3.40
2022-11-14T04:48:02.792Z,4.00
2022-11-14T04:49:02.810Z,4.10
2022-11-14T04:50:02.830Z,4.10
2022-11-14T04:51:02.841Z,4.70
2022-11-14T04:52:02.856Z,4.00
2022-11-14T04:53:02.882Z,3.30
2022-11-14T04:54:02.896Z,3.70
2022-11-14T04:55:02.908Z,3.10
2022-11-14T04:56:02.923Z,4.80
2022-11-14T04:57:02.937Z,4.10
2022-11-14T04:58:03.064Z,4.60
2022-11-14T04:59:02.969Z,4.50
2022-11-14T05:00:02.988Z,4.60
2022-11-14T05:01:03.047Z,3.80
2022-11-14T05:02:03.018Z,4.10
2022-11-14T05:03:03.032Z,4.60
2022-11-14T05:04:03.049Z,3.70
2022-11-14T05:05:03.066Z,3.90
2022-11-14T05:06:03.083Z,4.60
2022-11-14T05:07:03.159Z,3.60
2022-11-14T05:08:03.114Z,3.60
2022-11-14T05:09:03.130Z,4.20
2022-11-14T05:10:03.147Z,3.50
2022-11-14T05:11:03.160Z,3.50
2022-11-14T05:12:03.178Z,4.20
2022-11-14T05:13:03.194Z,4.30
2022-11-14T05:14:03.231Z,4.20
2022-11-14T05:15:03.231Z,3.70
2022-11-14T05:16:03.244Z,5.50
2022-11-14T05:17:03.257Z,3.60
2022-11-14T05:18:03.274Z,5.20
2022-11-14T05:19:03.667Z,3.50
2022-11-14T05:20:03.310Z,4.00
2022-11-14T05:21:03.327Z,3.90
2022-11-14T05:22:03.339Z,3.50
2022-11-14T05:23:03.354Z,3.50
2022-11-14T05:24:03.371Z,3.80
2022-11-14T05:25:03.388Z,3.80
2022-11-14T05:26:03.405Z,3.60
2022-11-14T05:27:03.418Z,3.50
2022-11-14T05:28:03.434Z,3.30
2022-11-14T05:29:03.448Z,3.60
2022-11-14T05:30:03.520Z,4.10
2022-11-14T05:31:03.483Z,3.80
2022-11-14T05:32:03.497Z,4.60
2022-11-14T05:33:03.513Z,3.40
2022-11-14T05:34:03.529Z,3.60
2022-11-14T05:35:03.549Z,4.00
2022-11-14T05:36:03.560Z,4.20
2022-11-14T05:37:03.577Z,4.90
2022-11-14T05:38:03.595Z,4.40
2022-11-14T05:39:03.609Z,3.40
2022-11-14T05:40:03.630Z,4.00
2022-11-14T05:41:03.641Z,3.90
2022-11-14T05:42:03.657Z,3.50
2022-11-14T05:43:03.674Z,3.70
2022-11-14T05:44:03.689Z,3.50
2022-11-14T05:45:03.709Z,4.60
2022-11-14T05:46:03.741Z,3.70
2022-11-14T05:47:03.735Z,3.60
2022-11-14T05:48:03.753Z,3.90
2022-11-14T05:49:03.768Z,3.70
2022-11-14T05:50:03.785Z,4.00
2022-11-14T05:51:03.803Z,4.00
2022-11-14T05:52:03.819Z,3.80
2022-11-14T05:53:03.836Z,4.20
2022-11-14T05:54:03.850Z,3.80
2022-11-14T05:55:03.865Z,3.90
2022-11-14T05:56:03.881Z,3.90
2022-11-14T05:57:03.897Z,4.60
2022-11-14T05:58:03.913Z,3.50
2022-11-14T05:59:03.930Z,4.50
2022-11-14T06:00:03.944Z,4.80
2022-11-14T06:01:03.961Z,4.50
2022-11-14T06:02:04.115Z,3.90
2022-11-14T06:03:03.992Z,4.00
2022-11-14T06:04:04.009Z,4.30
2022-11-14T06:05:04.024Z,4.30
2022-11-14T06:06:04.041Z,4.10
2022-11-14T06:07:04.094Z,4.20
2022-11-14T06:08:04.078Z,4.30
2022-11-14T06:09:04.100Z,3.60
2022-11-14T06:10:04.103Z,4.40
2022-11-14T06:11:04.117Z,4.20
2022-11-14T06:12:04.139Z,4.40
2022-11-14T06:13:04.151Z,3.90
2022-11-14T06:14:06.958Z,4.10
2022-11-14T06:15:04.185Z,4.10
2022-11-14T06:16:04.207Z,4.00
2022-11-14T06:17:04.215Z,4.10
2022-11-14T06:18:04.251Z,4.00
2022-11-14T06:19:04.248Z,4.10
2022-11-14T06:20:04.262Z,3.80
2022-11-14T06:21:04.278Z,3.90
2022-11-14T06:22:04.296Z,5.00
2022-11-14T06:23:04.310Z,4.10
2022-11-14T06:24:04.325Z,3.70
2022-11-14T06:25:04.344Z,3.80
2022-11-14T06:26:04.357Z,4.00
2022-11-14T06:27:04.373Z,3.60
2022-11-14T06:28:04.389Z,4.60
2022-11-14T06:29:04.407Z,4.20
2022-11-14T06:30:04.421Z,4.90
2022-11-14T06:31:04.445Z,4.00
2022-11-14T06:32:04.453Z,4.20
2022-11-14T06:33:04.473Z,4.10
2022-11-14T06:34:04.505Z,4.20
2022-11-14T06:35:04.501Z,4.50
2022-11-14T06:36:04.516Z,4.00
2022-11-14T06:37:04.532Z,3.90
2022-11-14T06:38:04.553Z,4.00
2022-11-14T06:39:04.565Z,4.00
2022-11-14T06:40:04.683Z,4.40
2022-11-14T06:41:04.597Z,3.90
2022-11-14T06:42:04.610Z,4.00
2022-11-14T06:43:04.630Z,4.80
2022-11-14T06:44:04.643Z,3.90
2022-11-14T06:45:04.700Z,3.90
2022-11-14T06:46:04.677Z,4.10
2022-11-14T06:47:04.691Z,4.30
2022-11-14T06:48:04.709Z,3.90
2022-11-14T06:49:04.725Z,4.20
2022-11-14T06:50:04.760Z,4.00
2022-11-14T06:51:04.755Z,4.10
2022-11-14T06:52:04.772Z,3.90
2022-11-14T06:53:04.788Z,4.00
2022-11-14T06:54:04.806Z,3.90
2022-11-14T06:55:04.818Z,3.90
2022-11-14T06:56:04.837Z,3.80
2022-11-14T06:57:04.849Z,4.30
2022-11-14T06:58:04.867Z,5.30
2022-11-14T06:59:04.880Z,4.50
2022-11-14T07:00:04.897Z,4.10
2022-11-14T07:01:04.912Z,4.00
2022-11-14T07:02:04.932Z,4.00
2022-11-14T07:03:05.046Z,4.20
2022-11-14T07:04:04.960Z,4.00
2022-11-14T07:05:04.979Z,3.90
2022-11-14T07:06:05.020Z,4.20
2022-11-14T07:07:05.060Z,3.80
2022-11-14T07:08:05.023Z,4.80
2022-11-14T07:09:05.039Z,3.80
2022-11-14T07:10:05.064Z,4.50
2022-11-14T07:11:05.070Z,4.10
2022-11-14T07:12:05.090Z,4.90
2022-11-14T07:13:05.103Z,4.00
2022-11-14T07:14:05.119Z,4.10
2022-11-14T07:15:05.135Z,4.10
2022-11-14T07:16:05.151Z,3.80
2022-11-14T07:17:05.172Z,4.30
2022-11-14T07:18:05.192Z,3.90
2022-11-14T07:19:05.198Z,4.00
2022-11-14T07:20:05.216Z,4.50
2022-11-14T07:21:05.228Z,3.90
2022-11-14T07:22:05.265Z,3.80
2022-11-14T07:23:05.262Z,4.40
2022-11-14T07:24:05.276Z,4.00
2022-11-14T07:25:05.294Z,4.70
2022-11-14T07:26:05.309Z,4.80
2022-11-14T07:27:05.326Z,4.20
2022-11-14T07:28:05.344Z,3.90
2022-11-14T07:29:05.356Z,4.40
2022-11-14T07:30:05.372Z,4.30
2022-11-14T07:31:05.389Z,5.20
2022-11-14T07:32:05.807Z,4.10
2022-11-14T07:33:05.420Z,4.40
2022-11-14T07:34:05.435Z,4.40
2022-11-14T07:35:05.457Z,4.20
2022-11-14T07:36:05.468Z,4.10
2022-11-14T07:37:05.482Z,4.20
2022-11-14T07:38:05.529Z,4.50
2022-11-14T07:39:05.540Z,3.90
2022-11-14T07:40:05.531Z,4.60
2022-11-14T07:41:05.548Z,4.20
2022-11-14T07:42:05.565Z,4.10
2022-11-14T07:43:05.577Z,4.20
2022-11-14T07:44:05.595Z,5.00
2022-11-14T07:45:05.611Z,4.10
2022-11-14T07:46:05.625Z,4.00
2022-11-14T07:47:05.647Z,4.40
2022-11-14T07:48:05.658Z,3.90
2022-11-14T07:49:05.672Z,4.70
2022-11-14T07:50:05.688Z,4.20
2022-11-14T07:51:05.709Z,4.00
2022-11-14T07:52:05.719Z,4.10
2022-11-14T07:53:05.736Z,4.20
2022-11-14T07:54:05.772Z,4.00
2022-11-14T07:55:05.766Z,4.30
2022-11-14T07:56:05.782Z,4.00
2022-11-14T07:57:05.799Z,4.80
2022-11-14T07:58:05.817Z,4.00
2022-11-14T07:59:05.829Z,4.10
2022-11-14T08:00:05.844Z,4.20
2022-11-14T08:01:05.943Z,4.40
2022-11-14T08:02:05.879Z,4.60
2022-11-14T08:03:05.891Z,4.00
2022-11-14T08:04:05.909Z,4.50
2022-11-14T08:05:05.934Z,4.50
2022-11-14T08:06:05.943Z,4.20
2022-11-14T08:07:06.023Z,3.70
2022-11-14T08:08:05.973Z,4.10
2022-11-14T08:09:05.990Z,4.10
2022-11-14T08:10:06.025Z,4.80
2022-11-14T08:11:06.017Z,4.40
2022-11-14T08:12:06.034Z,4.10
2022-11-14T08:13:34.081Z,4.50
2022-11-14T08:14:06.065Z,4.30
2022-11-14T08:15:06.082Z,4.60
2022-11-14T08:16:11.995Z,4.20
2022-11-14T08:17:06.113Z,3.80
2022-11-14T08:18:06.129Z,4.40
2022-11-14T08:19:06.144Z,4.10
2022-11-14T08:20:06.163Z,3.80
2022-11-14T08:21:06.180Z,4.20
2022-11-14T08:22:06.196Z,4.30
2022-11-14T08:23:06.210Z,4.80
2022-11-14T08:24:06.223Z,4.20
2022-11-14T08:25:06.239Z,3.70
2022-11-14T08:26:06.274Z,4.10
2022-11-14T08:27:06.272Z,4.70
2022-11-14T08:28:06.285Z,4.00
2022-11-14T08:29:06.303Z,4.10
2022-11-14T08:30:06.322Z,5.40
2022-11-14T08:31:06.335Z,4.90
2022-11-14T08:32:06.349Z,3.90
2022-11-14T08:33:06.367Z,4.00
2022-11-14T08:34:06.382Z,4.10
2022-11-14T08:35:06.396Z,4.10
2022-11-14T08:36:06.415Z,4.00
2022-11-14T08:37:06.428Z,4.40
2022-11-14T08:38:06.443Z,4.00
2022-11-14T08:39:06.459Z,4.10
2022-11-14T08:40:06.476Z,4.30
2022-11-14T08:41:06.495Z,4.00
2022-11-14T08:42:06.617Z,3.90
2022-11-14T08:43:06.521Z,4.10
2022-11-14T08:44:06.538Z,3.80
2022-11-14T08:45:06.554Z,3.80
2022-11-14T08:46:06.576Z,4.00
2022-11-14T08:47:06.587Z,4.00
2022-11-14T08:48:06.601Z,4.40
2022-11-14T08:49:06.617Z,4.00
2022-11-14T08:50:06.634Z,4.10
2022-11-14T08:51:06.648Z,3.60
2022-11-14T08:52:06.671Z,4.20
2022-11-14T08:53:06.680Z,4.20
2022-11-14T08:54:06.695Z,3.90
2022-11-14T08:55:06.711Z,4.30
2022-11-14T08:56:06.726Z,4.00
2022-11-14T08:57:06.742Z,4.00
2022-11-14T08:58:06.797Z,4.00
2022-11-14T08:59:06.773Z,3.80
2022-11-14T09:00:06.791Z,3.90
2022-11-14T09:01:06.804Z,3.80
2022-11-14T09:02:06.825Z,3.70
2022-11-14T09:03:06.936Z,3.60
2022-11-14T09:04:06.956Z,3.90
2022-11-14T09:05:06.868Z,4.30
2022-11-14T09:06:06.883Z,3.70
2022-11-14T09:07:07.000Z,3.70
2022-11-14T09:08:06.912Z,3.90
2022-11-14T09:09:06.929Z,4.00
2022-11-14T09:10:06.948Z,4.60
2022-11-14T09:11:09.213Z,3.60
2022-11-14T09:12:06.983Z,3.90
2022-11-14T09:13:06.993Z,4.00
2022-11-14T09:14:07.028Z,4.00
2022-11-14T09:15:07.022Z,4.00
2022-11-14T09:16:07.039Z,3.80
2022-11-14T09:17:07.065Z,3.80
2022-11-14T09:18:07.070Z,3.70
2022-11-14T09:19:07.088Z,3.60
2022-11-14T09:20:07.103Z,3.60
2022-11-14T09:21:07.133Z,4.20
2022-11-14T09:22:07.134Z,3.60
2022-11-14T09:23:07.150Z,3.80
2022-11-14T09:24:07.165Z,3.60
2022-11-14T09:25:07.181Z,3.60
2022-11-14T09:26:07.197Z,4.30
2022-11-14T09:27:07.211Z,3.70
2022-11-14T09:28:07.229Z,3.60
2022-11-14T09:29:07.242Z,3.70
2022-11-14T09:30:07.298Z,3.40
2022-11-14T09:31:07.274Z,3.90
2022-11-14T09:32:07.293Z,3.40
2022-11-14T09:33:11.701Z,3.50
2022-11-14T09:34:07.322Z,3.40
2022-11-14T09:35:07.335Z,4.30
2022-11-14T09:36:07.361Z,3.60
2022-11-14T09:37:07.368Z,3.40
2022-11-14T09:38:07.389Z,3.70
2022-11-14T09:39:07.406Z,3.60
2022-11-14T09:40:07.416Z,3.40
2022-11-14T09:41:07.432Z,3.40
2022-11-14T09:42:07.448Z,3.60
2022-11-14T09:43:07.459Z,3.40
2022-11-14T09:44:07.477Z,3.60
2022-11-14T09:45:07.492Z,3.60
2022-11-14T09:46:07.530Z,3.60
2022-11-14T09:47:07.523Z,3.50
2022-11-14T09:48:07.540Z,3.50
2022-11-14T09:49:07.557Z,3.50
2022-11-14T09:50:07.570Z,3.70
2022-11-14T09:51:07.592Z,3.20
2022-11-14T09:52:07.603Z,3.20
2022-11-14T09:53:07.619Z,3.50
2022-11-14T09:54:07.633Z,3.60
2022-11-14T09:55:07.654Z,3.40
2022-11-14T09:56:07.665Z,3.40
2022-11-14T09:57:07.682Z,3.40
2022-11-14T09:58:07.698Z,3.40
2022-11-14T09:59:07.714Z,3.30
2022-11-14T10:00:07.727Z,3.50
2022-11-14T10:01:09.652Z,3.40
2022-11-14T10:02:07.875Z,3.80
2022-11-14T10:03:07.776Z,3.40
2022-11-14T10:04:09.563Z,3.40
2022-11-14T10:05:07.806Z,3.30
2022-11-14T10:06:07.822Z,3.40
2022-11-14T10:07:07.867Z,3.50
2022-11-14T10:08:07.852Z,3.40
2022-11-14T10:09:07.869Z,3.20
2022-11-14T10:10:07.885Z,4.00
2022-11-14T10:11:07.904Z,3.30
2022-11-14T10:12:07.916Z,3.30
2022-11-14T10:13:07.931Z,3.80
2022-11-14T10:14:07.962Z,3.50
2022-11-14T10:15:07.965Z,4.10
2022-11-14T10:16:07.979Z,3.80
2022-11-14T10:17:10.742Z,3.50
2022-11-14T10:18:08.030Z,3.30
2022-11-14T10:19:10.570Z,3.40
2022-11-14T10:20:08.044Z,3.50
2022-11-14T10:21:08.057Z,4.10
2022-11-14T10:22:08.074Z,3.20
2022-11-14T10:23:08.088Z,3.20
2022-11-14T10:24:08.117Z,3.80
2022-11-14T10:25:08.123Z,3.30
2022-11-14T10:26:08.136Z,3.30
2022-11-14T10:27:08.154Z,3.60
2022-11-14T10:28:08.164Z,3.30
2022-11-14T10:29:08.183Z,3.70
2022-11-14T10:30:08.199Z,3.10
2022-11-14T10:31:08.213Z,3.30
2022-11-14T10:32:08.229Z,3.10
2022-11-14T10:33:08.243Z,3.40
2022-11-14T10:34:08.280Z,3.00
2022-11-14T10:35:08.276Z,3.30
2022-11-14T10:36:08.290Z,3.00
2022-11-14T10:37:08.305Z,3.10
2022-11-14T10:38:08.322Z,3.50
2022-11-14T10:39:08.335Z,3.20
2022-11-14T10:40:08.356Z,3.10
2022-11-14T10:41:08.370Z,3.20
2022-11-14T10:42:08.391Z,3.60
2022-11-14T10:43:08.602Z,3.10
2022-11-14T10:44:08.416Z,3.70
2022-11-14T10:45:08.433Z,3.00
2022-11-14T10:46:08.450Z,3.60
2022-11-14T10:47:08.464Z,3.30
2022-11-14T10:48:08.509Z,3.10
2022-11-14T10:49:08.498Z,3.60
2022-11-14T10:50:08.545Z,3.10
2022-11-14T10:51:08.528Z,3.10
2022-11-14T10:52:08.544Z,3.60
2022-11-14T10:53:08.560Z,3.00
2022-11-14T10:54:08.576Z,3.40
2022-11-14T10:55:08.587Z,3.40
2022-11-14T10:56:08.618Z,3.40
2022-11-14T10:57:08.618Z,3.20
2022-11-14T10:58:08.637Z,4.20
2022-11-14T10:59:08.673Z,3.30
2022-11-14T11:00:08.669Z,3.20
2022-11-14T11:01:08.754Z,2.80
2022-11-14T11:02:08.698Z,2.90
2022-11-14T11:03:08.713Z,3.00
2022-11-14T11:04:08.760Z,2.80
2022-11-14T11:05:08.745Z,3.70
2022-11-14T11:06:08.782Z,4.30
2022-11-14T11:07:08.911Z,2.80
2022-11-14T11:08:42.174Z,3.10
2022-11-14T11:09:08.842Z,3.60
2022-11-14T11:10:08.825Z,3.50
2022-11-14T11:11:08.840Z,3.30
2022-11-14T11:12:08.892Z,3.00
2022-11-14T11:13:08.871Z,4.30
2022-11-14T11:14:08.886Z,3.20
2022-11-14T11:15:08.901Z,3.30
2022-11-14T11:16:08.918Z,3.00
2022-11-14T11:17:08.936Z,3.10
2022-11-14T11:18:08.950Z,3.90
2022-11-14T11:19:08.963Z,3.10
2022-11-14T11:20:08.979Z,3.80
2022-11-14T11:21:09.046Z,3.70
2022-11-14T11:22:09.030Z,3.20
2022-11-14T11:23:09.028Z,3.20
2022-11-14T11:24:09.042Z,3.70
2022-11-14T11:25:09.059Z,2.70
2022-11-14T11:26:09.116Z,3.80
2022-11-14T11:27:09.092Z,3.60
2022-11-14T11:28:09.107Z,3.50
2022-11-14T11:29:09.119Z,3.40
2022-11-14T11:30:09.137Z,3.10
2022-11-14T11:31:09.151Z,3.50
2022-11-14T11:32:09.168Z,2.90
2022-11-14T11:33:09.182Z,3.20
2022-11-14T11:34:09.199Z,3.10
2022-11-14T11:35:09.744Z,3.00
2022-11-14T11:36:09.231Z,3.20
2022-11-14T11:37:09.249Z,3.50
2022-11-14T11:38:12.957Z,4.30
2022-11-14T11:39:09.277Z,3.10
2022-11-14T11:40:09.295Z,2.90
2022-11-14T11:41:15.531Z,3.00
2022-11-14T11:42:10.529Z,3.40
2022-11-14T11:43:38.426Z,4.20
2022-11-14T11:44:09.355Z,2.60
2022-11-14T11:45:09.375Z,3.20
2022-11-14T11:46:09.388Z,3.00
2022-11-14T11:47:09.404Z,2.90
2022-11-14T11:48:09.420Z,2.80
2022-11-14T11:49:09.638Z,2.70
2022-11-14T11:50:09.452Z,2.80
2022-11-14T11:51:09.467Z,2.40
2022-11-14T11:52:09.487Z,3.50
2022-11-14T11:53:09.498Z,2.70
2022-11-14T11:54:09.533Z,3.50
2022-11-14T11:55:10.057Z,3.70
2022-11-14T11:56:09.546Z,2.90
2022-11-14T11:57:09.570Z,3.10
2022-11-14T11:58:10.108Z,2.90
2022-11-14T11:59:09.594Z,3.30
2022-11-14T12:00:09.607Z,3.60
2022-11-14T12:01:09.624Z,4.00
2022-11-14T12:02:13.027Z,3.00
2022-11-14T12:03:09.793Z,2.90
2022-11-14T12:04:09.735Z,2.80
2022-11-14T12:05:09.689Z,2.60
2022-11-14T12:06:09.705Z,2.70
2022-11-14T12:07:09.802Z,2.70
2022-11-14T12:08:09.734Z,2.50
2022-11-14T12:09:09.751Z,2.50
2022-11-14T12:10:11.146Z,2.60
2022-11-14T12:11:09.782Z,3.50
2022-11-14T12:12:09.798Z,2.50
2022-11-14T12:13:09.813Z,2.90
2022-11-14T12:14:09.832Z,2.60
2022-11-14T12:15:09.846Z,2.60
2022-11-14T12:16:13.004Z,2.90
2022-11-14T12:17:09.879Z,2.70
2022-11-14T12:18:09.894Z,2.80
2022-11-14T12:19:09.907Z,2.80
2022-11-14T12:20:09.924Z,2.80
2022-11-14T12:21:09.939Z,2.40
2022-11-14T12:22:09.957Z,2.50
2022-11-14T12:23:09.976Z,2.80
2022-11-14T12:24:09.998Z,2.30
2022-11-14T12:25:10.005Z,2.30
2022-11-14T12:26:10.088Z,2.40
2022-11-14T12:27:10.702Z,3.20
2022-11-14T12:28:10.087Z,2.50
2022-11-14T12:29:10.068Z,2.40
2022-11-14T12:30:10.085Z,2.50
2022-11-14T12:31:10.098Z,2.40
2022-11-14T12:32:10.114Z,2.80
2022-11-14T12:33:10.133Z,2.60
2022-11-14T12:34:10.148Z,2.40
2022-11-14T12:35:10.220Z,3.00
2022-11-14T12:36:10.179Z,2.50
2022-11-14T12:37:10.223Z,2.30
2022-11-14T12:38:10.211Z,2.90
2022-11-14T12:39:10.229Z,3.00
2022-11-14T12:40:10.243Z,2.50
2022-11-14T12:41:10.257Z,2.50
2022-11-14T12:42:10.293Z,2.40
2022-11-14T12:43:10.288Z,2.20
2022-11-14T12:44:10.358Z,2.80
2022-11-14T12:45:10.322Z,3.00
2022-11-14T12:46:10.336Z,2.30
2022-11-14T12:47:10.353Z,2.70
2022-11-14T12:48:10.370Z,2.60
2022-11-14T12:49:10.385Z,2.20
2022-11-14T12:50:10.418Z,3.00
2022-11-14T12:51:10.475Z,2.60
2022-11-14T12:52:10.964Z,2.20
2022-11-14T12:53:10.450Z,2.20
2022-11-14T12:54:10.467Z,2.20
2022-11-14T12:55:10.481Z,2.30
2022-11-14T12:56:10.496Z,2.30
2022-11-14T12:57:10.511Z,2.80
2022-11-14T12:58:10.552Z,2.70
2022-11-14T12:59:10.544Z,2.50
2022-11-14T13:00:10.562Z,2.10
2022-11-14T13:01:10.611Z,2.30
2022-11-14T13:02:10.592Z,2.30
2022-11-14T13:03:10.608Z,2.40
2022-11-14T13:04:10.625Z,2.90
2022-11-14T13:05:10.642Z,2.30
2022-11-14T13:06:10.655Z,2.20
2022-11-14T13:07:10.715Z,2.20
2022-11-14T13:08:10.687Z,2.70
2022-11-14T13:09:10.702Z,2.20
2022-11-14T13:10:10.719Z,2.20
2022-11-14T13:11:10.735Z,3.10
2022-11-14T13:12:10.755Z,2.90
2022-11-14T13:13:10.765Z,2.30
2022-11-14T13:14:10.804Z,2.30
2022-11-14T13:15:10.797Z,2.60
2022-11-14T13:16:10.814Z,2.70
2022-11-14T13:17:10.832Z,2.50
2022-11-14T13:18:11.382Z,1.90
2022-11-14T13:19:10.861Z,2.60